sensor_id;sensor_type;location;lat;lon;timestamp;temperature;humidity
35700;DHT22;21818;51.078;12.108;2023-12-28T00:02:01;13.30;79.10
35700;DHT22;21818;51.078;12.108;2023-12-28T00:04:27;13.30;79.00
35700;DHT22;21818;51.078;12.108;2023-12-28T00:06:53;13.30;79.10
35700;DHT22;21818;51.078;12.108;2023-12-28T00:09:19;13.20;79.00
35700;DHT22;21818;51.078;12.108;2023-12-28T00:11:44;13.20;79.20
35700;DHT22;21818;51.078;12.108;2023-12-28T00:14:10;13.10;79.10
35700;DHT22;21818;51.078;12.108;2023-12-28T00:16:35;13.10;79.00
35700;DHT22;21818;51.078;12.108;2023-12-28T00:19:05;13.00;79.00
35700;DHT22;21818;51.078;12.108;2023-12-28T00:21:31;13.10;79.00
35700;DHT22;21818;51.078;12.108;2023-12-28T00:23:57;13.10;78.90
35700;DHT22;21818;51.078;12.108;2023-12-28T00:26:22;13.20;79.00
35700;DHT22;21818;51.078;12.108;2023-12-28T00:28:48;13.20;78.80
35700;DHT22;21818;51.078;12.108;2023-12-28T00:31:13;13.20;78.90
35700;DHT22;21818;51.078;12.108;2023-12-28T00:33:39;13.20;78.80
35700;DHT22;21818;51.078;12.108;2023-12-28T00:36:05;13.20;78.80
35700;DHT22;21818;51.078;12.108;2023-12-28T00:38:30;13.20;78.80
35700;DHT22;21818;51.078;12.108;2023-12-28T00:40:57;13.10;78.80
35700;DHT22;21818;51.078;12.108;2023-12-28T00:43:22;13.10;78.90
35700;DHT22;21818;51.078;12.108;2023-12-28T00:45:48;13.20;78.90
35700;DHT22;21818;51.078;12.108;2023-12-28T00:48:13;13.20;78.80
35700;DHT22;21818;51.078;12.108;2023-12-28T00:50:39;13.20;78.80
35700;DHT22;21818;51.078;12.108;2023-12-28T00:53:05;13.20;78.90
35700;DHT22;21818;51.078;12.108;2023-12-28T00:55:30;13.20;78.80
35700;DHT22;21818;51.078;12.108;2023-12-28T00:57:56;13.20;79.00
35700;DHT22;21818;51.078;12.108;2023-12-28T01:00:22;13.20;79.00
35700;DHT22;21818;51.078;12.108;2023-12-28T01:02:47;13.20;78.90
35700;DHT22;21818;51.078;12.108;2023-12-28T01:05:13;13.20;78.90
35700;DHT22;21818;51.078;12.108;2023-12-28T01:07:39;13.20;78.90
35700;DHT22;21818;51.078;12.108;2023-12-28T01:10:05;13.20;78.80
35700;DHT22;21818;51.078;12.108;2023-12-28T01:12:31;13.20;78.60
35700;DHT22;21818;51.078;12.108;2023-12-28T01:14:56;13.20;78.70
35700;DHT22;21818;51.078;12.108;2023-12-28T01:17:22;13.20;78.70
35700;DHT22;21818;51.078;12.108;2023-12-28T01:19:47;13.10;78.60
35700;DHT22;21818;51.078;12.108;2023-12-28T01:22:13;13.20;78.60
35700;DHT22;21818;51.078;12.108;2023-12-28T01:24:38;13.20;78.60
35700;DHT22;21818;51.078;12.108;2023-12-28T01:27:04;13.10;78.60
35700;DHT22;21818;51.078;12.108;2023-12-28T01:29:29;13.00;78.60
35700;DHT22;21818;51.078;12.108;2023-12-28T01:31:55;12.90;78.60
35700;DHT22;21818;51.078;12.108;2023-12-28T01:34:20;12.90;78.70
35700;DHT22;21818;51.078;12.108;2023-12-28T01:36:46;12.90;78.50
35700;DHT22;21818;51.078;12.108;2023-12-28T01:39:11;12.80;78.40
35700;DHT22;21818;51.078;12.108;2023-12-28T01:41:38;12.80;78.20
35700;DHT22;21818;51.078;12.108;2023-12-28T01:44:03;12.80;78.20
35700;DHT22;21818;51.078;12.108;2023-12-28T01:46:29;12.80;77.90
35700;DHT22;21818;51.078;12.108;2023-12-28T01:48:56;12.80;77.80
35700;DHT22;21818;51.078;12.108;2023-12-28T01:51:23;12.80;77.80
35700;DHT22;21818;51.078;12.108;2023-12-28T01:53:50;12.70;77.70
35700;DHT22;21818;51.078;12.108;2023-12-28T01:56:18;12.70;77.60
35700;DHT22;21818;51.078;12.108;2023-12-28T01:58:44;12.70;77.40
35700;DHT22;21818;51.078;12.108;2023-12-28T02:01:11;12.70;77.30
35700;DHT22;21818;51.078;12.108;2023-12-28T02:03:38;12.70;77.20
35700;DHT22;21818;51.078;12.108;2023-12-28T02:06:04;12.70;77.10
35700;DHT22;21818;51.078;12.108;2023-12-28T02:08:31;12.60;77.10
35700;DHT22;21818;51.078;12.108;2023-12-28T02:10:57;12.60;77.00
35700;DHT22;21818;51.078;12.108;2023-12-28T02:13:23;12.70;77.00
35700;DHT22;21818;51.078;12.108;2023-12-28T02:15:54;12.70;76.90
35700;DHT22;21818;51.078;12.108;2023-12-28T02:18:26;12.70;77.30
35700;DHT22;21818;51.078;12.108;2023-12-28T02:20:54;12.70;76.90
35700;DHT22;21818;51.078;12.108;2023-12-28T02:23:20;12.60;77.00
35700;DHT22;21818;51.078;12.108;2023-12-28T02:25:46;12.70;77.00
35700;DHT22;21818;51.078;12.108;2023-12-28T02:28:11;12.70;76.80
35700;DHT22;21818;51.078;12.108;2023-12-28T02:30:37;12.60;76.80
35700;DHT22;21818;51.078;12.108;2023-12-28T02:33:25;12.70;76.70
35700;DHT22;21818;51.078;12.108;2023-12-28T02:35:52;12.60;76.60
35700;DHT22;21818;51.078;12.108;2023-12-28T02:38:20;12.60;76.70
35700;DHT22;21818;51.078;12.108;2023-12-28T02:40:47;12.60;76.70
35700;DHT22;21818;51.078;12.108;2023-12-28T02:43:14;12.70;76.70
35700;DHT22;21818;51.078;12.108;2023-12-28T02:45:40;12.60;76.60
35700;DHT22;21818;51.078;12.108;2023-12-28T02:48:06;12.70;76.70
35700;DHT22;21818;51.078;12.108;2023-12-28T02:50:32;12.70;76.60
35700;DHT22;21818;51.078;12.108;2023-12-28T02:52:59;12.70;76.40
35700;DHT22;21818;51.078;12.108;2023-12-28T02:55:25;12.70;76.40
35700;DHT22;21818;51.078;12.108;2023-12-28T02:57:53;12.70;76.40
35700;DHT22;21818;51.078;12.108;2023-12-28T03:00:24;12.70;76.40
35700;DHT22;21818;51.078;12.108;2023-12-28T03:02:50;12.70;76.50
35700;DHT22;21818;51.078;12.108;2023-12-28T03:05:16;12.70;76.60
35700;DHT22;21818;51.078;12.108;2023-12-28T03:07:41;12.70;76.80
35700;DHT22;21818;51.078;12.108;2023-12-28T03:10:08;12.80;76.80
35700;DHT22;21818;51.078;12.108;2023-12-28T03:12:34;12.90;76.90
35700;DHT22;21818;51.078;12.108;2023-12-28T03:14:59;12.90;76.70
35700;DHT22;21818;51.078;12.108;2023-12-28T03:17:25;13.00;76.70
35700;DHT22;21818;51.078;12.108;2023-12-28T03:19:50;13.00;76.50
35700;DHT22;21818;51.078;12.108;2023-12-28T03:22:16;13.10;76.50
35700;DHT22;21818;51.078;12.108;2023-12-28T03:24:42;13.10;76.30
35700;DHT22;21818;51.078;12.108;2023-12-28T03:27:08;13.20;76.30
35700;DHT22;21818;51.078;12.108;2023-12-28T03:29:34;13.20;76.20
35700;DHT22;21818;51.078;12.108;2023-12-28T03:31:59;13.30;76.20
35700;DHT22;21818;51.078;12.108;2023-12-28T03:34:26;13.30;76.10
35700;DHT22;21818;51.078;12.108;2023-12-28T03:36:52;13.30;76.00
35700;DHT22;21818;51.078;12.108;2023-12-28T03:39:18;13.40;75.90
35700;DHT22;21818;51.078;12.108;2023-12-28T03:41:43;13.40;75.90
35700;DHT22;21818;51.078;12.108;2023-12-28T03:44:09;13.40;75.80
35700;DHT22;21818;51.078;12.108;2023-12-28T03:46:34;13.40;75.70
35700;DHT22;21818;51.078;12.108;2023-12-28T03:49:00;13.40;75.70
35700;DHT22;21818;51.078;12.108;2023-12-28T03:51:26;13.40;75.80
35700;DHT22;21818;51.078;12.108;2023-12-28T03:53:51;13.40;75.80
35700;DHT22;21818;51.078;12.108;2023-12-28T03:56:29;13.40;75.70
35700;DHT22;21818;51.078;12.108;2023-12-28T03:58:55;13.50;75.60
35700;DHT22;21818;51.078;12.108;2023-12-28T04:01:21;13.40;76.50
35700;DHT22;21818;51.078;12.108;2023-12-28T04:03:48;13.50;76.80
35700;DHT22;21818;51.078;12.108;2023-12-28T04:06:14;13.50;76.70
35700;DHT22;21818;51.078;12.108;2023-12-28T04:08:40;13.50;76.80
35700;DHT22;21818;51.078;12.108;2023-12-28T04:11:06;13.50;76.70
35700;DHT22;21818;51.078;12.108;2023-12-28T04:13:32;13.60;76.70
35700;DHT22;21818;51.078;12.108;2023-12-28T04:15:57;13.60;76.40
35700;DHT22;21818;51.078;12.108;2023-12-28T04:18:23;13.50;76.40
35700;DHT22;21818;51.078;12.108;2023-12-28T04:20:48;13.50;76.50
35700;DHT22;21818;51.078;12.108;2023-12-28T04:23:14;13.50;76.30
35700;DHT22;21818;51.078;12.108;2023-12-28T04:25:40;13.60;76.30
35700;DHT22;21818;51.078;12.108;2023-12-28T04:28:06;13.60;76.20
35700;DHT22;21818;51.078;12.108;2023-12-28T04:30:31;13.60;76.20
35700;DHT22;21818;51.078;12.108;2023-12-28T04:32:57;13.60;76.20
35700;DHT22;21818;51.078;12.108;2023-12-28T04:35:22;13.60;76.10
35700;DHT22;21818;51.078;12.108;2023-12-28T04:37:48;13.60;76.10
35700;DHT22;21818;51.078;12.108;2023-12-28T04:40:13;13.60;76.10
35700;DHT22;21818;51.078;12.108;2023-12-28T04:42:43;13.60;76.00
35700;DHT22;21818;51.078;12.108;2023-12-28T04:45:08;13.60;76.00
35700;DHT22;21818;51.078;12.108;2023-12-28T04:47:35;13.60;76.00
35700;DHT22;21818;51.078;12.108;2023-12-28T04:50:02;13.60;75.90
35700;DHT22;21818;51.078;12.108;2023-12-28T04:52:28;13.60;75.70
35700;DHT22;21818;51.078;12.108;2023-12-28T04:54:54;13.60;75.90
35700;DHT22;21818;51.078;12.108;2023-12-28T04:57:19;13.60;75.90
35700;DHT22;21818;51.078;12.108;2023-12-28T04:59:45;13.60;75.80
35700;DHT22;21818;51.078;12.108;2023-12-28T05:02:10;13.60;75.80
35700;DHT22;21818;51.078;12.108;2023-12-28T05:04:39;13.60;75.90
35700;DHT22;21818;51.078;12.108;2023-12-28T05:07:04;13.60;75.90
35700;DHT22;21818;51.078;12.108;2023-12-28T05:09:30;13.60;75.80
35700;DHT22;21818;51.078;12.108;2023-12-28T05:11:56;13.60;75.90
35700;DHT22;21818;51.078;12.108;2023-12-28T05:14:22;13.60;75.90
35700;DHT22;21818;51.078;12.108;2023-12-28T05:16:47;13.60;75.80
35700;DHT22;21818;51.078;12.108;2023-12-28T05:19:13;13.60;75.90
35700;DHT22;21818;51.078;12.108;2023-12-28T05:21:38;13.50;75.90
35700;DHT22;21818;51.078;12.108;2023-12-28T05:24:04;13.50;75.90
35700;DHT22;21818;51.078;12.108;2023-12-28T05:26:30;13.50;75.90
35700;DHT22;21818;51.078;12.108;2023-12-28T05:28:56;13.60;75.90
35700;DHT22;21818;51.078;12.108;2023-12-28T05:31:21;13.50;75.90
35700;DHT22;21818;51.078;12.108;2023-12-28T05:33:47;13.50;76.00
35700;DHT22;21818;51.078;12.108;2023-12-28T05:36:12;13.60;76.10
35700;DHT22;21818;51.078;12.108;2023-12-28T05:38:38;13.50;76.00
35700;DHT22;21818;51.078;12.108;2023-12-28T05:41:03;13.50;76.20
35700;DHT22;21818;51.078;12.108;2023-12-28T05:43:29;13.50;76.40
35700;DHT22;21818;51.078;12.108;2023-12-28T05:45:54;13.50;76.30
35700;DHT22;21818;51.078;12.108;2023-12-28T05:48:20;13.50;76.40
35700;DHT22;21818;51.078;12.108;2023-12-28T05:50:45;13.50;76.30
35700;DHT22;21818;51.078;12.108;2023-12-28T05:53:11;13.60;76.40
35700;DHT22;21818;51.078;12.108;2023-12-28T05:55:41;13.60;76.40
35700;DHT22;21818;51.078;12.108;2023-12-28T05:58:06;13.60;76.50
35700;DHT22;21818;51.078;12.108;2023-12-28T06:00:32;13.60;76.60
35700;DHT22;21818;51.078;12.108;2023-12-28T06:02:57;13.60;76.60
35700;DHT22;21818;51.078;12.108;2023-12-28T06:05:23;13.50;76.60
35700;DHT22;21818;51.078;12.108;2023-12-28T06:07:48;13.50;76.90
35700;DHT22;21818;51.078;12.108;2023-12-28T06:10:14;13.50;76.80
35700;DHT22;21818;51.078;12.108;2023-12-28T06:12:39;13.50;76.90
35700;DHT22;21818;51.078;12.108;2023-12-28T06:15:06;13.50;77.00
35700;DHT22;21818;51.078;12.108;2023-12-28T06:17:32;13.50;77.10
35700;DHT22;21818;51.078;12.108;2023-12-28T06:19:57;13.50;77.10
35700;DHT22;21818;51.078;12.108;2023-12-28T06:22:23;13.50;77.20
35700;DHT22;21818;51.078;12.108;2023-12-28T06:24:53;13.50;77.30
35700;DHT22;21818;51.078;12.108;2023-12-28T06:27:19;13.60;77.20
35700;DHT22;21818;51.078;12.108;2023-12-28T06:29:44;13.50;77.30
35700;DHT22;21818;51.078;12.108;2023-12-28T06:32:10;13.50;77.40
35700;DHT22;21818;51.078;12.108;2023-12-28T06:34:35;13.50;77.40
35700;DHT22;21818;51.078;12.108;2023-12-28T06:37:01;13.60;77.70
35700;DHT22;21818;51.078;12.108;2023-12-28T06:39:27;13.60;77.60
35700;DHT22;21818;51.078;12.108;2023-12-28T06:41:52;13.50;77.50
35700;DHT22;21818;51.078;12.108;2023-12-28T06:44:18;13.50;77.70
35700;DHT22;21818;51.078;12.108;2023-12-28T06:46:43;13.50;77.80
35700;DHT22;21818;51.078;12.108;2023-12-28T06:49:09;13.40;77.80
35700;DHT22;21818;51.078;12.108;2023-12-28T06:51:34;13.40;77.90
35700;DHT22;21818;51.078;12.108;2023-12-28T06:54:00;13.40;78.00
35700;DHT22;21818;51.078;12.108;2023-12-28T06:56:26;13.40;78.00
35700;DHT22;21818;51.078;12.108;2023-12-28T06:58:51;13.40;78.20
35700;DHT22;21818;51.078;12.108;2023-12-28T07:01:17;13.40;78.20
35700;DHT22;21818;51.078;12.108;2023-12-28T07:03:43;13.30;78.20
35700;DHT22;21818;51.078;12.108;2023-12-28T07:06:09;13.30;78.30
35700;DHT22;21818;51.078;12.108;2023-12-28T07:08:34;13.20;78.40
35700;DHT22;21818;51.078;12.108;2023-12-28T07:11:01;13.30;78.50
35700;DHT22;21818;51.078;12.108;2023-12-28T07:13:27;13.20;78.50
35700;DHT22;21818;51.078;12.108;2023-12-28T07:15:53;13.20;78.60
35700;DHT22;21818;51.078;12.108;2023-12-28T07:18:18;13.20;78.70
35700;DHT22;21818;51.078;12.108;2023-12-28T07:20:44;13.10;78.70
35700;DHT22;21818;51.078;12.108;2023-12-28T07:23:10;13.10;78.80
35700;DHT22;21818;51.078;12.108;2023-12-28T07:25:35;13.10;78.80
35700;DHT22;21818;51.078;12.108;2023-12-28T07:28:01;13.10;78.90
35700;DHT22;21818;51.078;12.108;2023-12-28T07:30:26;13.00;78.90
35700;DHT22;21818;51.078;12.108;2023-12-28T07:32:52;13.00;78.90
35700;DHT22;21818;51.078;12.108;2023-12-28T07:35:18;13.00;78.90
35700;DHT22;21818;51.078;12.108;2023-12-28T07:37:43;13.00;78.90
35700;DHT22;21818;51.078;12.108;2023-12-28T07:40:11;12.90;79.00
35700;DHT22;21818;51.078;12.108;2023-12-28T07:42:37;12.90;79.20
35700;DHT22;21818;51.078;12.108;2023-12-28T07:45:03;12.90;79.30
35700;DHT22;21818;51.078;12.108;2023-12-28T07:47:29;12.90;79.30
35700;DHT22;21818;51.078;12.108;2023-12-28T07:49:55;12.90;79.30
35700;DHT22;21818;51.078;12.108;2023-12-28T07:52:20;12.90;79.30
35700;DHT22;21818;51.078;12.108;2023-12-28T07:54:46;12.90;79.90
35700;DHT22;21818;51.078;12.108;2023-12-28T07:57:12;13.20;80.30
35700;DHT22;21818;51.078;12.108;2023-12-28T07:59:37;13.50;80.20
35700;DHT22;21818;51.078;12.108;2023-12-28T08:02:03;13.70;79.90
35700;DHT22;21818;51.078;12.108;2023-12-28T08:04:28;13.80;79.70
35700;DHT22;21818;51.078;12.108;2023-12-28T08:06:54;13.90;79.70
35700;DHT22;21818;51.078;12.108;2023-12-28T08:09:19;13.90;79.70
35700;DHT22;21818;51.078;12.108;2023-12-28T08:11:45;14.00;79.70
35700;DHT22;21818;51.078;12.108;2023-12-28T08:14:11;14.00;79.80
35700;DHT22;21818;51.078;12.108;2023-12-28T08:16:36;14.00;79.80
35700;DHT22;21818;51.078;12.108;2023-12-28T08:19:02;14.00;79.80
35700;DHT22;21818;51.078;12.108;2023-12-28T08:21:27;13.90;80.00
35700;DHT22;21818;51.078;12.108;2023-12-28T08:23:53;13.90;80.10
35700;DHT22;21818;51.078;12.108;2023-12-28T08:26:18;13.90;80.10
35700;DHT22;21818;51.078;12.108;2023-12-28T08:28:44;13.90;80.20
35700;DHT22;21818;51.078;12.108;2023-12-28T08:31:10;13.90;80.20
35700;DHT22;21818;51.078;12.108;2023-12-28T08:33:36;13.90;80.30
35700;DHT22;21818;51.078;12.108;2023-12-28T08:36:05;13.90;80.30
35700;DHT22;21818;51.078;12.108;2023-12-28T08:38:30;13.90;80.30
35700;DHT22;21818;51.078;12.108;2023-12-28T08:40:56;13.90;80.20
35700;DHT22;21818;51.078;12.108;2023-12-28T08:43:22;13.90;80.20
35700;DHT22;21818;51.078;12.108;2023-12-28T08:45:47;14.00;80.30
35700;DHT22;21818;51.078;12.108;2023-12-28T08:48:13;14.00;80.30
35700;DHT22;21818;51.078;12.108;2023-12-28T08:50:38;14.00;80.20
35700;DHT22;21818;51.078;12.108;2023-12-28T08:53:04;14.00;80.20
35700;DHT22;21818;51.078;12.108;2023-12-28T08:55:29;14.10;80.20
35700;DHT22;21818;51.078;12.108;2023-12-28T08:57:55;14.10;80.20
35700;DHT22;21818;51.078;12.108;2023-12-28T09:00:21;14.00;80.10
35700;DHT22;21818;51.078;12.108;2023-12-28T09:02:46;14.10;80.30
35700;DHT22;21818;51.078;12.108;2023-12-28T09:05:12;14.00;80.30
35700;DHT22;21818;51.078;12.108;2023-12-28T09:07:38;14.10;80.80
35700;DHT22;21818;51.078;12.108;2023-12-28T09:10:12;14.10;80.20
35700;DHT22;21818;51.078;12.108;2023-12-28T09:12:38;14.20;80.20
35700;DHT22;21818;51.078;12.108;2023-12-28T09:15:07;14.20;80.10
35700;DHT22;21818;51.078;12.108;2023-12-28T09:17:33;14.20;80.00
35700;DHT22;21818;51.078;12.108;2023-12-28T09:19:58;14.30;80.00
35700;DHT22;21818;51.078;12.108;2023-12-28T09:22:24;14.30;80.00
35700;DHT22;21818;51.078;12.108;2023-12-28T09:24:50;14.30;79.90
35700;DHT22;21818;51.078;12.108;2023-12-28T09:27:16;14.30;79.90
35700;DHT22;21818;51.078;12.108;2023-12-28T09:29:41;14.30;79.80
35700;DHT22;21818;51.078;12.108;2023-12-28T09:32:07;14.30;79.80
35700;DHT22;21818;51.078;12.108;2023-12-28T09:34:33;14.40;79.80
35700;DHT22;21818;51.078;12.108;2023-12-28T09:36:58;14.40;79.70
35700;DHT22;21818;51.078;12.108;2023-12-28T09:39:24;14.40;79.70
35700;DHT22;21818;51.078;12.108;2023-12-28T09:41:59;14.40;79.60
35700;DHT22;21818;51.078;12.108;2023-12-28T09:44:26;14.40;79.70
35700;DHT22;21818;51.078;12.108;2023-12-28T09:46:53;14.40;79.70
35700;DHT22;21818;51.078;12.108;2023-12-28T09:49:21;14.40;79.80
35700;DHT22;21818;51.078;12.108;2023-12-28T09:51:47;14.30;79.70
35700;DHT22;21818;51.078;12.108;2023-12-28T09:54:13;14.30;79.80
35700;DHT22;21818;51.078;12.108;2023-12-28T09:56:40;14.30;79.90
35700;DHT22;21818;51.078;12.108;2023-12-28T09:59:06;14.30;80.00
35700;DHT22;21818;51.078;12.108;2023-12-28T10:01:34;14.30;80.00
35700;DHT22;21818;51.078;12.108;2023-12-28T10:04:00;14.30;80.00
35700;DHT22;21818;51.078;12.108;2023-12-28T10:06:25;14.30;80.00
35700;DHT22;21818;51.078;12.108;2023-12-28T10:08:51;14.30;80.00
35700;DHT22;21818;51.078;12.108;2023-12-28T10:11:18;14.30;80.00
35700;DHT22;21818;51.078;12.108;2023-12-28T10:13:44;14.30;80.00
35700;DHT22;21818;51.078;12.108;2023-12-28T10:16:11;14.30;80.00
35700;DHT22;21818;51.078;12.108;2023-12-28T10:18:44;14.30;79.90
35700;DHT22;21818;51.078;12.108;2023-12-28T10:21:11;14.30;79.90
35700;DHT22;21818;51.078;12.108;2023-12-28T10:23:37;14.40;80.00
35700;DHT22;21818;51.078;12.108;2023-12-28T10:26:04;14.40;79.90
35700;DHT22;21818;51.078;12.108;2023-12-28T10:28:34;14.40;79.90
35700;DHT22;21818;51.078;12.108;2023-12-28T10:31:00;14.40;79.90
35700;DHT22;21818;51.078;12.108;2023-12-28T10:33:26;14.40;79.90
35700;DHT22;21818;51.078;12.108;2023-12-28T10:35:51;14.40;79.90
35700;DHT22;21818;51.078;12.108;2023-12-28T10:38:18;14.40;79.80
35700;DHT22;21818;51.078;12.108;2023-12-28T10:40:44;14.40;79.90
35700;DHT22;21818;51.078;12.108;2023-12-28T10:43:14;14.40;79.90
35700;DHT22;21818;51.078;12.108;2023-12-28T10:45:41;14.40;79.90
35700;DHT22;21818;51.078;12.108;2023-12-28T10:48:10;14.40;79.90
35700;DHT22;21818;51.078;12.108;2023-12-28T10:50:49;14.40;79.80
35700;DHT22;21818;51.078;12.108;2023-12-28T10:58:51;14.50;79.70
35700;DHT22;21818;51.078;12.108;2023-12-28T11:01:31;14.50;79.60
35700;DHT22;21818;51.078;12.108;2023-12-28T11:04:02;14.50;79.60
35700;DHT22;21818;51.078;12.108;2023-12-28T11:06:30;14.50;79.60
35700;DHT22;21818;51.078;12.108;2023-12-28T11:08:58;14.50;79.50
35700;DHT22;21818;51.078;12.108;2023-12-28T11:11:25;14.60;80.00
35700;DHT22;21818;51.078;12.108;2023-12-28T11:13:53;14.60;79.50
35700;DHT22;21818;51.078;12.108;2023-12-28T11:16:20;14.60;79.60
35700;DHT22;21818;51.078;12.108;2023-12-28T11:18:47;14.50;79.50
35700;DHT22;21818;51.078;12.108;2023-12-28T11:21:13;14.50;79.60
35700;DHT22;21818;51.078;12.108;2023-12-28T11:23:39;14.60;79.50
35700;DHT22;21818;51.078;12.108;2023-12-28T11:26:16;14.60;79.50
35700;DHT22;21818;51.078;12.108;2023-12-28T11:28:41;14.50;79.50
35700;DHT22;21818;51.078;12.108;2023-12-28T11:31:10;14.50;79.50
35700;DHT22;21818;51.078;12.108;2023-12-28T11:33:46;14.50;79.50
35700;DHT22;21818;51.078;12.108;2023-12-28T11:36:33;14.50;79.40
35700;DHT22;21818;51.078;12.108;2023-12-28T11:39:02;14.50;79.40
35700;DHT22;21818;51.078;12.108;2023-12-28T11:41:33;14.50;79.40
35700;DHT22;21818;51.078;12.108;2023-12-28T11:44:04;14.60;79.40
35700;DHT22;21818;51.078;12.108;2023-12-28T11:46:31;14.60;79.40
35700;DHT22;21818;51.078;12.108;2023-12-28T11:49:06;14.50;79.30
35700;DHT22;21818;51.078;12.108;2023-12-28T11:51:38;14.60;79.30
35700;DHT22;21818;51.078;12.108;2023-12-28T11:54:04;14.60;79.30
35700;DHT22;21818;51.078;12.108;2023-12-28T11:56:30;14.60;79.30
35700;DHT22;21818;51.078;12.108;2023-12-28T11:58:56;14.60;79.20
35700;DHT22;21818;51.078;12.108;2023-12-28T12:01:21;14.70;79.10
35700;DHT22;21818;51.078;12.108;2023-12-28T12:03:48;14.80;78.90
35700;DHT22;21818;51.078;12.108;2023-12-28T12:06:14;14.90;78.70
35700;DHT22;21818;51.078;12.108;2023-12-28T12:08:40;15.00;78.50
35700;DHT22;21818;51.078;12.108;2023-12-28T12:11:06;15.10;78.30
35700;DHT22;21818;51.078;12.108;2023-12-28T12:13:32;15.20;78.20
35700;DHT22;21818;51.078;12.108;2023-12-28T12:15:58;15.30;77.90
35700;DHT22;21818;51.078;12.108;2023-12-28T12:18:25;15.40;77.80
35700;DHT22;21818;51.078;12.108;2023-12-28T12:20:50;15.50;77.60
35700;DHT22;21818;51.078;12.108;2023-12-28T12:23:16;15.60;77.30
35700;DHT22;21818;51.078;12.108;2023-12-28T12:25:42;15.70;77.10
35700;DHT22;21818;51.078;12.108;2023-12-28T12:28:10;15.80;76.90
35700;DHT22;21818;51.078;12.108;2023-12-28T12:30:36;15.90;76.70
35700;DHT22;21818;51.078;12.108;2023-12-28T12:33:02;16.00;76.50
35700;DHT22;21818;51.078;12.108;2023-12-28T12:35:28;16.10;76.40
35700;DHT22;21818;51.078;12.108;2023-12-28T12:37:54;16.20;76.20
35700;DHT22;21818;51.078;12.108;2023-12-28T12:40:20;16.30;76.00
35700;DHT22;21818;51.078;12.108;2023-12-28T12:42:54;16.40;75.80
35700;DHT22;21818;51.078;12.108;2023-12-28T12:45:20;16.50;75.60
35700;DHT22;21818;51.078;12.108;2023-12-28T12:47:47;16.60;75.50
35700;DHT22;21818;51.078;12.108;2023-12-28T12:50:13;16.60;75.20
35700;DHT22;21818;51.078;12.108;2023-12-28T12:52:39;16.70;75.10
35700;DHT22;21818;51.078;12.108;2023-12-28T12:55:05;16.80;74.90
35700;DHT22;21818;51.078;12.108;2023-12-28T12:57:30;16.80;74.60
35700;DHT22;21818;51.078;12.108;2023-12-28T12:59:56;16.90;74.50
35700;DHT22;21818;51.078;12.108;2023-12-28T13:02:23;17.00;74.40
35700;DHT22;21818;51.078;12.108;2023-12-28T13:04:51;17.10;74.30
35700;DHT22;21818;51.078;12.108;2023-12-28T13:07:18;17.10;74.10
35700;DHT22;21818;51.078;12.108;2023-12-28T13:09:44;17.20;74.00
35700;DHT22;21818;51.078;12.108;2023-12-28T13:12:09;17.30;73.80
35700;DHT22;21818;51.078;12.108;2023-12-28T13:14:35;17.30;73.60
35700;DHT22;21818;51.078;12.108;2023-12-28T13:17:01;17.40;73.50
35700;DHT22;21818;51.078;12.108;2023-12-28T13:19:27;17.40;73.40
35700;DHT22;21818;51.078;12.108;2023-12-28T13:21:52;17.50;73.30
35700;DHT22;21818;51.078;12.108;2023-12-28T13:24:18;17.50;73.30
35700;DHT22;21818;51.078;12.108;2023-12-28T13:26:44;17.60;73.10
35700;DHT22;21818;51.078;12.108;2023-12-28T13:29:09;17.60;73.00
35700;DHT22;21818;51.078;12.108;2023-12-28T13:31:35;17.70;72.90
35700;DHT22;21818;51.078;12.108;2023-12-28T13:34:00;17.70;72.70
35700;DHT22;21818;51.078;12.108;2023-12-28T13:36:26;17.70;72.60
35700;DHT22;21818;51.078;12.108;2023-12-28T13:38:53;17.70;72.50
35700;DHT22;21818;51.078;12.108;2023-12-28T13:41:19;17.80;72.50
35700;DHT22;21818;51.078;12.108;2023-12-28T13:43:45;17.80;72.40
35700;DHT22;21818;51.078;12.108;2023-12-28T13:46:10;17.80;72.40
35700;DHT22;21818;51.078;12.108;2023-12-28T13:48:36;17.80;72.20
35700;DHT22;21818;51.078;12.108;2023-12-28T13:51:04;17.80;72.20
35700;DHT22;21818;51.078;12.108;2023-12-28T13:53:30;17.80;72.10
35700;DHT22;21818;51.078;12.108;2023-12-28T13:55:59;17.80;72.20
35700;DHT22;21818;51.078;12.108;2023-12-28T13:58:25;17.80;72.20
35700;DHT22;21818;51.078;12.108;2023-12-28T14:00:50;17.80;72.10
35700;DHT22;21818;51.078;12.108;2023-12-28T14:03:16;17.80;72.10
35700;DHT22;21818;51.078;12.108;2023-12-28T14:05:41;17.80;72.10
35700;DHT22;21818;51.078;12.108;2023-12-28T14:08:08;17.80;72.00
35700;DHT22;21818;51.078;12.108;2023-12-28T14:10:34;17.80;72.00
35700;DHT22;21818;51.078;12.108;2023-12-28T14:13:00;17.80;72.00
35700;DHT22;21818;51.078;12.108;2023-12-28T14:15:25;17.80;71.90
35700;DHT22;21818;51.078;12.108;2023-12-28T14:17:51;17.80;71.90
35700;DHT22;21818;51.078;12.108;2023-12-28T14:20:17;17.80;71.90
35700;DHT22;21818;51.078;12.108;2023-12-28T14:22:43;17.70;71.90
35700;DHT22;21818;51.078;12.108;2023-12-28T14:25:09;17.70;71.90
35700;DHT22;21818;51.078;12.108;2023-12-28T14:27:37;17.70;71.90
35700;DHT22;21818;51.078;12.108;2023-12-28T14:30:04;17.70;71.90
35700;DHT22;21818;51.078;12.108;2023-12-28T14:32:31;17.70;71.90
35700;DHT22;21818;51.078;12.108;2023-12-28T14:34:58;17.60;71.90
35700;DHT22;21818;51.078;12.108;2023-12-28T14:37:23;17.60;72.00
35700;DHT22;21818;51.078;12.108;2023-12-28T14:39:49;17.60;72.00
35700;DHT22;21818;51.078;12.108;2023-12-28T14:42:14;17.50;72.00
35700;DHT22;21818;51.078;12.108;2023-12-28T14:44:40;17.50;72.00
35700;DHT22;21818;51.078;12.108;2023-12-28T14:47:05;17.50;72.10
35700;DHT22;21818;51.078;12.108;2023-12-28T14:49:31;17.40;72.10
35700;DHT22;21818;51.078;12.108;2023-12-28T14:51:57;17.40;72.30
35700;DHT22;21818;51.078;12.108;2023-12-28T14:54:22;17.20;72.40
35700;DHT22;21818;51.078;12.108;2023-12-28T14:56:48;17.10;72.60
35700;DHT22;21818;51.078;12.108;2023-12-28T14:59:13;17.00;72.70
35700;DHT22;21818;51.078;12.108;2023-12-28T15:01:39;17.00;72.90
35700;DHT22;21818;51.078;12.108;2023-12-28T15:04:05;16.90;73.10
35700;DHT22;21818;51.078;12.108;2023-12-28T15:06:31;16.80;73.10
35700;DHT22;21818;51.078;12.108;2023-12-28T15:08:57;16.80;73.30
35700;DHT22;21818;51.078;12.108;2023-12-28T15:11:23;16.70;73.30
35700;DHT22;21818;51.078;12.108;2023-12-28T15:13:48;16.60;73.40
35700;DHT22;21818;51.078;12.108;2023-12-28T15:16:14;16.60;73.50